Time;durP1;ratioP1;P1;durP2;ratioP2;P2;SDS_P1;SDS_P2;PMS_P1;PMS_P2;Temp;Humidity;BMP_temperature;BMP_pressure;BME280_temperature;BME280_humidity;BME280_pressure;Samples;Min_cycle;Max_cycle;Signal;HPM_P1;HPM_P2
2022/09/17 00:00:47;;;;;;;;;;;;;;;;;;5046459;28;20170;-58
2022/09/17 00:03:12;;;;;;;;;;;;;;;;;;5046075;28;19904;-58
2022/09/17 00:05:39;;;;;;;;;;;;;;;;;;5046467;28;19909;-58
2022/09/17 00:08:06;;;;;;;;;;;;;;;;;;5045903;28;19987;-58
2022/09/17 00:10:32;;;;;;;;;;;;;;;;;;5046293;28;19955;-58
2022/09/17 00:12:58;;;;;;;;;;;;;;;;;;5045985;28;19959;-58
2022/09/17 00:15:24;;;;;;;;;;;;;;;;;;5046750;28;20276;-58
2022/09/17 00:17:50;;;;;;;;;;;;;;;;;;5046103;28;19990;-58
2022/09/17 00:20:17;;;;;;;;;;;;;;;;;;5046327;28;19908;-58
2022/09/17 00:22:44;;;;;;;;;;;;;;;;;;5045798;28;19978;-58
2022/09/17 00:25:10;;;;;;;;;;;;;;;;;;5044973;28;20411;-58
2022/09/17 00:27:37;;;;;;;;;;;;;;;;;;5045672;28;19955;-58
2022/09/17 00:30:03;;;;;;;;;;;;;;;;;;5046043;28;20493;-58
2022/09/17 00:32:29;;;;;;;;;;;;;;;;;;5045668;28;19909;-58
2022/09/17 00:34:55;;;;;;;;;;;;;;;;;;5045530;28;19911;-58
2022/09/17 00:37:21;;;;;;;;;;;;;;;;;;5045993;28;19909;-58
2022/09/17 00:39:47;;;;;;;;;;;;;;;;;;5045504;28;19913;-58
2022/09/17 00:42:14;;;;;;;;;;;;;;;;;;5045827;28;19905;-58
2022/09/17 00:44:41;;;;;;;;;;;;;;;;;;5045694;28;19936;-58
2022/09/17 00:47:07;;;;;;;;;;;;;;;;;;5045277;28;19919;-58
2022/09/17 00:49:33;;;;;;;;;;;;;;;;;;5045864;28;20033;-58
2022/09/17 00:52:00;;;;;;;;;;;;;;;;;;5045729;28;19951;-58
2022/09/17 00:54:26;;;;;;;;;;;;;;;;;;5045286;28;19948;-58
2022/09/17 00:56:53;;;;;;;;;;;;;;;;;;5045799;28;20445;-58
2022/09/17 00:59:21;;;;;;;;;;;;;;;;;;5045372;28;19913;-58
2022/09/17 01:01:48;;;;;;;;;;;;;;;;;;5044878;28;20391;-58
2022/09/17 01:04:14;;;;;;;;;;;;;;;;;;5045724;28;20007;-58
2022/09/17 01:06:40;;;;;;;;;;;;;;;;;;5045253;28;20020;-58
2022/09/17 01:09:06;;;;;;;;;;;;;;;;;;5045028;28;19911;-58
2022/09/17 01:11:32;;;;;;;;;;;;;;;;;;5045198;28;19917;-59
2022/09/17 01:13:59;;;;;;;;;;;;;;;;;;5045149;28;19904;-58
2022/09/17 01:16:26;;;;;;;;;;;;;;;;;;5045054;28;20372;-58
2022/09/17 01:18:52;;;;;;;;;;;;;;;;;;5045780;28;19955;-58
2022/09/17 01:21:17;;;;;;;;;;;;;;;;;;5045289;28;19909;-58
2022/09/17 01:23:43;;;;;;;;;;;;;;;;;;5045041;28;19909;-58
2022/09/17 01:26:10;;;;;;;;;;;;;;;;;;5045300;28;19950;-58
2022/09/17 01:28:36;;;;;;;;;;;;;;;;;;5045139;28;19920;-58
2022/09/17 01:31:03;;;;;;;;;;;;;;;;;;5044764;28;19904;-59
2022/09/17 01:33:30;;;;;;;;;;;;;;;;;;5044623;28;19937;-58
2022/09/17 01:35:57;;;;;;;;;;;;;;;;;;5044722;28;20342;-58
2022/09/17 01:38:23;;;;;;;;;;;;;;;;;;5049727;28;19995;-58
2022/09/17 01:40:49;;;;;;;;;;;;;;;;;;5048762;28;20082;-58
2022/09/17 01:43:16;;;;;;;;;;;;;;;;;;5048955;28;19909;-58
2022/09/17 01:45:42;;;;;;;;;;;;;;;;;;5049120;28;20411;-58
2022/09/17 01:48:08;;;;;;;;;;;;;;;;;;5048282;28;19905;-58
2022/09/17 01:50:35;;;;;;;;;;;;;;;;;;5048816;28;19931;-59
2022/09/17 01:53:01;;;;;;;;;;;;;;;;;;5048785;28;19908;-58
2022/09/17 01:55:28;;;;;;;;;;;;;;;;;;5048929;28;19905;-58
2022/09/17 01:57:55;;;;;;;;;;;;;;;;;;5048785;28;20517;-59
2022/09/17 02:00:22;;;;;;;;;;;;;;;;;;5049368;28;19916;-58
2022/09/17 02:02:47;;;;;;;;;;;;;;;;;;5048118;28;20001;-58
2022/09/17 02:05:14;;;;;;;;;;;;;;;;;;5048524;28;19940;-58
2022/09/17 02:07:40;;;;;;;;;;;;;;;;;;5048439;28;19912;-58
2022/09/17 02:10:07;;;;;;;;;;;;;;;;;;5048570;28;20387;-58
2022/09/17 02:12:33;;;;;;;;;;;;;;;;;;5048395;28;19966;-58
2022/09/17 02:14:59;;;;;;;;;;;;;;;;;;5048192;28;20337;-58
2022/09/17 02:17:25;;;;;;;;;;;;;;;;;;5048347;28;19911;-58
2022/09/17 02:19:52;;;;;;;;;;;;;;;;;;5048845;28;20290;-58
2022/09/17 02:22:18;;;;;;;;;;;;;;;;;;5048416;28;19913;-58
2022/09/17 02:24:44;;;;;;;;;;;;;;;;;;5048166;28;19916;-58
2022/09/17 02:27:12;;;;;;;;;;;;;;;;;;5048385;28;20358;-58
2022/09/17 02:29:39;;;;;;;;;;;;;;;;;;5048094;28;19908;-58
2022/09/17 02:32:04;;;;;;;;;;;;;;;;;;5047706;28;19954;-58
2022/09/17 02:34:30;;;;;;;;;;;;;;;;;;5047827;28;19905;-58
2022/09/17 02:36:58;;;;;;;;;;;;;;;;;;5047824;28;20334;-58
2022/09/17 02:39:25;;;;;;;;;;;;;;;;;;5048593;28;20220;-58
2022/09/17 02:41:52;;;;;;;;;;;;;;;;;;5030369;28;20341;-58
2022/09/17 02:44:18;;;;;;;;;;;;;;;;;;5047747;28;19913;-58
2022/09/17 02:46:44;;;;;;;;;;;;;;;;;;5047430;28;19991;-58
2022/09/17 02:49:10;;;;;;;;;;;;;;;;;;5046620;28;20426;-58
2022/09/17 02:51:37;;;;;;;;;;;;;;;;;;5047853;28;20232;-58
2022/09/17 02:54:04;;;;;;;;;;;;;;;;;;5047439;28;19916;-58
2022/09/17 02:56:32;;;;;;;;;;;;;;;;;;5047672;28;19995;-59
2022/09/17 02:58:58;;;;;;;;;;;;;;;;;;5047204;28;19912;-58
2022/09/17 03:01:25;;;;;;;;;;;;;;;;;;5048079;28;19915;-58
2022/09/17 03:03:52;;;;;;;;;;;;;;;;;;5047782;28;20372;-58
2022/09/17 03:06:19;;;;;;;;;;;;;;;;;;5047339;28;19916;-58
2022/09/17 03:08:46;;;;;;;;;;;;;;;;;;5047341;28;19905;-58
2022/09/17 03:11:12;;;;;;;;;;;;;;;;;;5047374;28;19912;-58
2022/09/17 03:13:38;;;;;;;;;;;;;;;;;;5047153;28;20303;-58
2022/09/17 03:16:05;;;;;;;;;;;;;;;;;;5046728;28;19915;-58
2022/09/17 03:18:31;;;;;;;;;;;;;;;;;;5047027;28;19912;-58
2022/09/17 03:20:58;;;;;;;;;;;;;;;;;;5047046;28;20352;-58
2022/09/17 03:23:24;;;;;;;;;;;;;;;;;;5047636;28;19939;-58
2022/09/17 03:25:51;;;;;;;;;;;;;;;;;;5047448;28;20304;-58
2022/09/17 03:28:17;;;;;;;;;;;;;;;;;;5046966;28;19920;-58
2022/09/17 03:30:43;;;;;;;;;;;;;;;;;;5047073;28;20332;-58
2022/09/17 03:33:09;;;;;;;;;;;;;;;;;;5047078;28;20405;-58
2022/09/17 03:35:36;;;;;;;;;;;;;;;;;;5046916;28;19919;-58
2022/09/17 03:38:03;;;;;;;;;;;;;;;;;;5046484;28;19948;-58
2022/09/17 03:40:29;;;;;;;;;;;;;;;;;;5046924;28;19962;-58
2022/09/17 03:42:56;;;;;;;;;;;;;;;;;;5047131;28;19908;-58
2022/09/17 03:45:21;;;;;;;;;;;;;;;;;;5045331;28;19909;-58
2022/09/17 03:47:47;;;;;;;;;;;;;;;;;;5046808;28;19916;-58
2022/09/17 03:50:13;;;;;;;;;;;;;;;;;;5046402;28;19954;-58
2022/09/17 03:52:39;;;;;;;;;;;;;;;;;;5046541;28;19912;-58
2022/09/17 03:55:05;;;;;;;;;;;;;;;;;;5046285;28;19905;-58
2022/09/17 03:57:31;;;;;;;;;;;;;;;;;;5046294;28;19935;-58
2022/09/17 03:59:57;;;;;;;;;;;;;;;;;;5046619;28;19956;-58
2022/09/17 04:02:23;;;;;;;;;;;;;;;;;;5046289;28;19904;-59
2022/09/17 04:04:49;;;;;;;;;;;;;;;;;;5046440;28;19916;-58
2022/09/17 04:07:15;;;;;;;;;;;;;;;;;;5046393;28;20285;-59
2022/09/17 04:09:41;;;;;;;;;;;;;;;;;;5046189;28;20341;-58
2022/09/17 04:12:08;;;;;;;;;;;;;;;;;;5045768;28;19916;-58
2022/09/17 04:14:34;;;;;;;;;;;;;;;;;;5045860;28;19908;-59
2022/09/17 04:17:00;;;;;;;;;;;;;;;;;;5046159;28;19912;-59
2022/09/17 04:19:26;;;;;;;;;;;;;;;;;;5046818;28;20159;-58
2022/09/17 04:21:52;;;;;;;;;;;;;;;;;;5045915;28;19905;-58
2022/09/17 04:24:18;;;;;;;;;;;;;;;;;;5046214;28;19916;-58
2022/09/17 04:26:44;;;;;;;;;;;;;;;;;;5027778;28;19908;-58
2022/09/17 04:29:10;;;;;;;;;;;;;;;;;;5045950;28;19905;-58
2022/09/17 04:31:37;;;;;;;;;;;;;;;;;;5045559;28;19951;-58
2022/09/17 04:34:03;;;;;;;;;;;;;;;;;;5046078;28;20017;-58
2022/09/17 04:36:29;;;;;;;;;;;;;;;;;;5046350;28;19916;-58
2022/09/17 04:38:55;;;;;;;;;;;;;;;;;;5045965;28;19909;-58
2022/09/17 04:41:21;;;;;;;;;;;;;;;;;;5045663;28;19905;-58
2022/09/17 04:43:47;;;;;;;;;;;;;;;;;;5045476;28;20061;-58
2022/09/17 04:46:13;;;;;;;;;;;;;;;;;;5045288;28;19951;-58
2022/09/17 04:48:40;;;;;;;;;;;;;;;;;;5045577;28;20302;-58
2022/09/17 04:51:05;;;;;;;;;;;;;;;;;;5027320;28;20361;-58
2022/09/17 04:53:31;;;;;;;;;;;;;;;;;;5045439;28;19905;-58
2022/09/17 04:55:58;;;;;;;;;;;;;;;;;;5045820;28;19904;-58
2022/09/17 04:58:24;;;;;;;;;;;;;;;;;;5045684;28;19913;-58
2022/09/17 05:00:51;;;;;;;;;;;;;;;;;;5045126;28;20011;-58
2022/09/17 05:03:16;;;;;;;;;;;;;;;;;;5045441;28;19905;-58
2022/09/17 05:05:42;;;;;;;;;;;;;;;;;;5045277;28;19905;-58
2022/09/17 05:08:10;;;;;;;;;;;;;;;;;;5045185;28;19908;-58
2022/09/17 05:10:37;;;;;;;;;;;;;;;;;;5045182;28;19992;-58
2022/09/17 05:13:03;;;;;;;;;;;;;;;;;;5044578;28;19920;-58
2022/09/17 05:15:29;;;;;;;;;;;;;;;;;;5045604;28;19912;-57
2022/09/17 05:17:55;;;;;;;;;;;;;;;;;;5045279;28;20415;-58
2022/09/17 05:20:21;;;;;;;;;;;;;;;;;;5045986;28;19912;-58
2022/09/17 05:22:47;;;;;;;;;;;;;;;;;;5046150;28;20263;-58
2022/09/17 05:25:13;;;;;;;;;;;;;;;;;;5046511;28;19909;-58
2022/09/17 05:27:39;;;;;;;;;;;;;;;;;;5028192;28;19954;-58
2022/09/17 05:30:05;;;;;;;;;;;;;;;;;;5045783;28;19916;-58
2022/09/17 05:32:31;;;;;;;;;;;;;;;;;;5046631;28;19908;-58
2022/09/17 05:34:57;;;;;;;;;;;;;;;;;;5046856;28;19911;-57
2022/09/17 05:37:23;;;;;;;;;;;;;;;;;;5046526;28;19901;-57
2022/09/17 05:39:49;;;;;;;;;;;;;;;;;;5045581;28;19921;-57
2022/09/17 05:42:15;;;;;;;;;;;;;;;;;;5045952;28;19912;-58
2022/09/17 05:44:41;;;;;;;;;;;;;;;;;;5045010;28;19950;-58
2022/09/17 05:47:07;;;;;;;;;;;;;;;;;;5045988;28;19931;-58
2022/09/17 05:49:33;;;;;;;;;;;;;;;;;;5045548;28;19908;-58
2022/09/17 05:51:58;;;;;;;;;;;;;;;;;;5045284;28;19913;-57
2022/09/17 05:54:24;;;;;;;;;;;;;;;;;;5045352;28;19909;-58
2022/09/17 05:56:51;;;;;;;;;;;;;;;;;;5044179;28;19924;-58
2022/09/17 05:59:18;;;;;;;;;;;;;;;;;;5044324;28;19920;-58
2022/09/17 06:01:44;;;;;;;;;;;;;;;;;;5044250;28;19951;-58
2022/09/17 06:04:11;;;;;;;;;;;;;;;;;;5045308;28;20399;-58
2022/09/17 06:06:40;;;;;;;;;;;;;;;;;;5044259;28;20003;-58
2022/09/17 06:09:06;;;;;;;;;;;;;;;;;;5044496;28;19932;-58
2022/09/17 06:11:32;;;;;;;;;;;;;;;;;;5044189;28;19948;-57
2022/09/17 06:13:58;;;;;;;;;;;;;;;;;;5043872;28;19912;-58
2022/09/17 06:16:24;;;;;;;;;;;;;;;;;;5044390;28;19958;-58
2022/09/17 06:18:51;;;;;;;;;;;;;;;;;;5034937;28;19968;-59
2022/09/17 06:21:18;;;;;;;;;;;;;;;;;;5040534;28;19916;-59
2022/09/17 06:23:44;;;;;;;;;;;;;;;;;;5030044;28;20308;-59
2022/09/17 06:26:11;;;;;;;;;;;;;;;;;;5009718;28;20358;-59
2022/09/17 06:28:37;;;;;;;;;;;;;;;;;;5026412;28;19936;-59
2022/09/17 06:31:03;;;;;;;;;;;;;;;;;;5026170;28;19949;-59
2022/09/17 06:33:30;;;;;;;;;;;;;;;;;;5026369;28;20397;-58
2022/09/17 06:35:56;;;;;;;;;;;;;;;;;;5026190;28;20214;-59
2022/09/17 06:38:22;;;;;;;;;;;;;;;;;;5026224;28;20031;-59
2022/09/17 06:40:48;;;;;;;;;;;;;;;;;;5027436;28;20007;-59
2022/09/17 06:43:13;;;;;;;;;;;;;;;;;;5027908;28;19911;-60
2022/09/17 06:45:41;;;;;;;;;;;;;;;;;;5028608;28;19928;-59
2022/09/17 06:48:07;;;;;;;;;;;;;;;;;;5027286;28;19905;-59
2022/09/17 06:50:34;;;;;;;;;;;;;;;;;;5026525;28;20439;-59
2022/09/17 06:52:59;;;;;;;;;;;;;;;;;;5027847;28;19964;-59
2022/09/17 06:55:25;;;;;;;;;;;;;;;;;;5027570;28;20261;-59
2022/09/17 06:57:51;;;;;;;;;;;;;;;;;;5027244;28;19905;-59
2022/09/17 07:00:17;;;;;;;;;;;;;;;;;;5027664;28;19935;-59
2022/09/17 07:02:43;;;;;;;;;;;;;;;;;;5010166;28;19911;-59
2022/09/17 07:05:09;;;;;;;;;;;;;;;;;;5028285;28;19909;-59
2022/09/17 07:07:36;;;;;;;;;;;;;;;;;;5027559;28;19909;-59
2022/09/17 07:10:03;;;;;;;;;;;;;;;;;;5027438;28;19936;-59
2022/09/17 07:12:29;;;;;;;;;;;;;;;;;;5027212;28;19923;-59
2022/09/17 07:14:54;;;;;;;;;;;;;;;;;;5027055;28;20011;-59
2022/09/17 07:17:22;;;;;;;;;;;;;;;;;;5027346;28;19949;-58
2022/09/17 07:19:48;;;;;;;;;;;;;;;;;;5027282;28;20376;-59
2022/09/17 07:22:14;;;;;;;;;;;;;;;;;;5027387;28;19905;-59
2022/09/17 07:24:39;;;;;;;;;;;;;;;;;;5027753;28;20776;-59
2022/09/17 07:27:06;;;;;;;;;;;;;;;;;;5026917;28;20046;-59
2022/09/17 07:29:33;;;;;;;;;;;;;;;;;;5026933;28;19988;-59
2022/09/17 07:31:59;;;;;;;;;;;;;;;;;;5026816;28;19908;-59
2022/09/17 07:34:27;;;;;;;;;;;;;;;;;;5026803;28;19909;-59
2022/09/17 07:36:54;;;;;;;;;;;;;;;;;;5026979;28;19904;-59
2022/09/17 07:39:20;;;;;;;;;;;;;;;;;;5026746;28;19966;-59
2022/09/17 07:41:47;;;;;;;;;;;;;;;;;;5026414;28;20471;-59
2022/09/17 07:44:14;;;;;;;;;;;;;;;;;;5027852;28;19905;-59
2022/09/17 07:46:40;;;;;;;;;;;;;;;;;;5027823;28;20441;-59
2022/09/17 07:49:06;;;;;;;;;;;;;;;;;;5046611;28;20330;-59
2022/09/17 07:51:32;;;;;;;;;;;;;;;;;;5046621;28;20001;-59
2022/09/17 07:53:58;;;;;;;;;;;;;;;;;;5046435;28;19960;-59
2022/09/17 07:56:24;;;;;;;;;;;;;;;;;;5046354;28;19904;-59
2022/09/17 07:58:49;;;;;;;;;;;;;;;;;;5045912;28;20011;-59
2022/09/17 08:01:16;;;;;;;;;;;;;;;;;;5046552;28;19908;-59
2022/09/17 08:03:42;;;;;;;;;;;;;;;;;;5046875;28;19915;-59
2022/09/17 08:06:09;;;;;;;;;;;;;;;;;;5046139;28;19905;-59
2022/09/17 08:08:36;;;;;;;;;;;;;;;;;;5046434;28;19930;-59
2022/09/17 08:11:02;;;;;;;;;;;;;;;;;;5046228;28;19995;-59
2022/09/17 08:13:28;;;;;;;;;;;;;;;;;;5045630;28;20003;-59
2022/09/17 08:15:54;;;;;;;;;;;;;;;;;;5046231;28;19959;-59
2022/09/17 08:18:20;;;;;;;;;;;;;;;;;;5046125;28;20402;-59
2022/09/17 08:20:45;;;;;;;;;;;;;;;;;;5028008;28;19908;-59
2022/09/17 08:23:11;;;;;;;;;;;;;;;;;;5046529;28;20265;-59
2022/09/17 08:25:38;;;;;;;;;;;;;;;;;;5045991;28;19958;-59
2022/09/17 08:28:04;;;;;;;;;;;;;;;;;;5045528;28;19908;-59
2022/09/17 08:30:31;;;;;;;;;;;;;;;;;;5046011;28;20020;-58
2022/09/17 08:32:58;;;;;;;;;;;;;;;;;;5045952;28;19991;-58
2022/09/17 08:35:25;;;;;;;;;;;;;;;;;;5045933;28;20329;-59
2022/09/17 08:37:51;;;;;;;;;;;;;;;;;;5045276;28;19913;-59
2022/09/17 08:40:19;;;;;;;;;;;;;;;;;;5045752;28;20426;-59
2022/09/17 08:42:45;;;;;;;;;;;;;;;;;;5045116;28;19911;-59
2022/09/17 08:45:13;;;;;;;;;;;;;;;;;;5046353;28;19908;-59
2022/09/17 08:47:41;;;;;;;;;;;;;;;;;;5044838;28;19913;-59
2022/09/17 08:50:08;;;;;;;;;;;;;;;;;;5045560;28;19905;-59
2022/09/17 08:52:35;;;;;;;;;;;;;;;;;;5045227;28;19905;-59
2022/09/17 08:55:02;;;;;;;;;;;;;;;;;;5045298;28;19916;-59
2022/09/17 08:57:28;;;;;;;;;;;;;;;;;;5045081;28;19949;-59
2022/09/17 08:59:54;;;;;;;;;;;;;;;;;;5045163;28;19908;-59
2022/09/17 09:02:20;;;;;;;;;;;;;;;;;;5045287;28;19916;-59
2022/09/17 09:04:46;;;;;;;;;;;;;;;;;;5045074;28;20375;-59
2022/09/17 09:07:13;;;;;;;;;;;;;;;;;;5045885;28;19904;-59
2022/09/17 09:09:40;;;;;;;;;;;;;;;;;;5045191;28;20406;-59
2022/09/17 09:12:06;;;;;;;;;;;;;;;;;;5044918;28;20003;-59
2022/09/17 09:14:34;;;;;;;;;;;;;;;;;;5045253;28;20384;-58
2022/09/17 09:17:01;;;;;;;;;;;;;;;;;;5044847;28;20388;-58
2022/09/17 09:19:29;;;;;;;;;;;;;;;;;;5027223;28;20014;-59
2022/09/17 09:21:54;;;;;;;;;;;;;;;;;;5026884;28;19909;-59
2022/09/17 09:24:21;;;;;;;;;;;;;;;;;;5045233;28;20721;-59
2022/09/17 09:26:47;;;;;;;;;;;;;;;;;;5044578;28;19959;-59
2022/09/17 09:29:13;;;;;;;;;;;;;;;;;;5045593;28;19904;-59
2022/09/17 09:31:39;;;;;;;;;;;;;;;;;;5044979;28;20338;-59
2022/09/17 09:34:06;;;;;;;;;;;;;;;;;;5044843;28;19909;-59
2022/09/17 09:36:32;;;;;;;;;;;;;;;;;;5045176;28;20303;-59
2022/09/17 09:38:58;;;;;;;;;;;;;;;;;;5044389;28;19920;-59
2022/09/17 09:41:25;;;;;;;;;;;;;;;;;;5043931;28;19958;-59
2022/09/17 09:43:51;;;;;;;;;;;;;;;;;;5044843;28;19974;-59
2022/09/17 09:46:17;;;;;;;;;;;;;;;;;;5044451;28;20384;-59
2022/09/17 09:48:44;;;;;;;;;;;;;;;;;;5045574;28;20291;-58
2022/09/17 09:51:11;;;;;;;;;;;;;;;;;;5045049;28;19954;-59
2022/09/17 09:53:36;;;;;;;;;;;;;;;;;;5044584;28;19909;-59
2022/09/17 09:56:02;;;;;;;;;;;;;;;;;;5044382;28;19905;-59
2022/09/17 09:58:29;;;;;;;;;;;;;;;;;;5047234;28;20383;-59
2022/09/17 10:00:55;;;;;;;;;;;;;;;;;;5048290;28;19987;-59
2022/09/17 10:03:22;;;;;;;;;;;;;;;;;;5048725;28;20709;-59
2022/09/17 10:05:48;;;;;;;;;;;;;;;;;;5048343;28;20292;-59
2022/09/17 10:08:14;;;;;;;;;;;;;;;;;;5048995;28;19908;-59
2022/09/17 10:10:40;;;;;;;;;;;;;;;;;;5049380;28;19904;-59
2022/09/17 10:13:07;;;;;;;;;;;;;;;;;;5048175;28;19921;-59
2022/09/17 10:15:34;;;;;;;;;;;;;;;;;;5048577;28;19905;-59
2022/09/17 10:18:00;;;;;;;;;;;;;;;;;;5048223;28;19909;-60
2022/09/17 10:20:26;;;;;;;;;;;;;;;;;;5048189;28;19915;-59
2022/09/17 10:22:53;;;;;;;;;;;;;;;;;;5048044;28;19928;-59
2022/09/17 10:25:19;;;;;;;;;;;;;;;;;;5048337;28;19955;-59
2022/09/17 10:27:45;;;;;;;;;;;;;;;;;;5047526;28;19952;-59
2022/09/17 10:30:12;;;;;;;;;;;;;;;;;;5048702;28;19958;-58
2022/09/17 10:32:38;;;;;;;;;;;;;;;;;;5048162;28;20399;-59
2022/09/17 10:35:04;;;;;;;;;;;;;;;;;;5047866;28;19908;-59
2022/09/17 10:37:31;;;;;;;;;;;;;;;;;;5029806;28;19905;-59
2022/09/17 10:39:58;;;;;;;;;;;;;;;;;;5047822;28;19920;-59
2022/09/17 10:42:24;;;;;;;;;;;;;;;;;;5047844;28;20429;-59
2022/09/17 10:44:50;;;;;;;;;;;;;;;;;;5047864;28;20003;-59
2022/09/17 10:47:16;;;;;;;;;;;;;;;;;;5047518;28;19913;-59
2022/09/17 10:49:43;;;;;;;;;;;;;;;;;;5048399;28;20447;-58
2022/09/17 10:52:09;;;;;;;;;;;;;;;;;;5047731;28;19913;-59
2022/09/17 10:54:35;;;;;;;;;;;;;;;;;;5047759;28;20373;-59
2022/09/17 10:57:02;;;;;;;;;;;;;;;;;;5047234;28;19908;-59
2022/09/17 10:59:29;;;;;;;;;;;;;;;;;;5047357;28;20384;-59
2022/09/17 11:01:55;;;;;;;;;;;;;;;;;;5047329;28;19905;-59
2022/09/17 11:04:22;;;;;;;;;;;;;;;;;;5047301;28;19928;-59
2022/09/17 11:06:48;;;;;;;;;;;;;;;;;;5047766;28;19917;-59
2022/09/17 11:09:15;;;;;;;;;;;;;;;;;;5047281;28;19940;-59
2022/09/17 11:11:40;;;;;;;;;;;;;;;;;;5048015;28;19913;-58
2022/09/17 11:14:06;;;;;;;;;;;;;;;;;;5047155;28;19919;-59
2022/09/17 11:16:33;;;;;;;;;;;;;;;;;;5047131;28;19955;-58
2022/09/17 11:18:59;;;;;;;;;;;;;;;;;;5046849;28;20013;-59
2022/09/17 11:21:25;;;;;;;;;;;;;;;;;;5047291;28;20019;-58
2022/09/17 11:23:51;;;;;;;;;;;;;;;;;;5047296;28;20056;-58
2022/09/17 11:26:17;;;;;;;;;;;;;;;;;;5047030;28;20331;-59
2022/09/17 11:28:44;;;;;;;;;;;;;;;;;;5047706;28;19905;-59
2022/09/17 11:31:11;;;;;;;;;;;;;;;;;;5047450;28;19913;-58
2022/09/17 11:33:36;;;;;;;;;;;;;;;;;;5046919;28;19931;-59
2022/09/17 11:36:03;;;;;;;;;;;;;;;;;;5046828;28;19909;-58
2022/09/17 11:38:30;;;;;;;;;;;;;;;;;;5046669;28;19901;-59
2022/09/17 11:40:57;;;;;;;;;;;;;;;;;;5046549;28;19912;-59
2022/09/17 11:43:24;;;;;;;;;;;;;;;;;;5046932;28;19909;-61
2022/09/17 11:45:50;;;;;;;;;;;;;;;;;;5046337;28;19915;-58
2022/09/17 11:48:16;;;;;;;;;;;;;;;;;;5046621;28;19905;-59
2022/09/17 11:50:43;;;;;;;;;;;;;;;;;;5047487;28;19951;-59
2022/09/17 11:53:08;;;;;;;;;;;;;;;;;;5046701;28;20119;-59
2022/09/17 11:55:34;;;;;;;;;;;;;;;;;;5046305;28;20438;-59
2022/09/17 11:58:01;;;;;;;;;;;;;;;;;;5046393;28;19905;-59
2022/09/17 12:00:27;;;;;;;;;;;;;;;;;;5045940;28;20391;-59
2022/09/17 12:02:53;;;;;;;;;;;;;;;;;;5046783;28;19954;-59
2022/09/17 12:05:19;;;;;;;;;;;;;;;;;;5046577;28;20067;-59
2022/09/17 12:07:46;;;;;;;;;;;;;;;;;;5046586;28;19991;-59
2022/09/17 12:10:12;;;;;;;;;;;;;;;;;;5047049;28;19912;-58
2022/09/17 12:12:39;;;;;;;;;;;;;;;;;;5046151;28;19916;-58
2022/09/17 12:15:04;;;;;;;;;;;;;;;;;;5045893;28;19995;-59
2022/09/17 12:17:30;;;;;;;;;;;;;;;;;;5046031;28;20360;-59
2022/09/17 12:19:56;;;;;;;;;;;;;;;;;;5045741;28;20478;-59
2022/09/17 12:22:22;;;;;;;;;;;;;;;;;;5045099;28;19909;-59
2022/09/17 12:24:48;;;;;;;;;;;;;;;;;;5045728;28;20391;-59
2022/09/17 12:27:14;;;;;;;;;;;;;;;;;;5046598;28;19986;-60
2022/09/17 12:29:40;;;;;;;;;;;;;;;;;;5045766;28;19947;-59
2022/09/17 12:32:06;;;;;;;;;;;;;;;;;;5045853;28;20011;-59
2022/09/17 12:34:33;;;;;;;;;;;;;;;;;;5046030;28;20311;-59
2022/09/17 12:36:58;;;;;;;;;;;;;;;;;;5045541;28;20283;-59
2022/09/17 12:39:25;;;;;;;;;;;;;;;;;;5045573;28;19909;-59
2022/09/17 12:41:51;;;;;;;;;;;;;;;;;;5045463;28;19911;-58
2022/09/17 12:44:17;;;;;;;;;;;;;;;;;;5045786;28;19908;-59
2022/09/17 12:46:43;;;;;;;;;;;;;;;;;;5046207;28;19909;-58
2022/09/17 12:49:09;;;;;;;;;;;;;;;;;;5045675;28;20380;-59
2022/09/17 12:51:36;;;;;;;;;;;;;;;;;;5045718;28;19991;-59
2022/09/17 12:54:03;;;;;;;;;;;;;;;;;;5045343;28;19905;-58
2022/09/17 12:56:30;;;;;;;;;;;;;;;;;;5045182;28;19909;-59
2022/09/17 12:58:57;;;;;;;;;;;;;;;;;;5045043;28;19932;-62
2022/09/17 13:01:22;;;;;;;;;;;;;;;;;;5045382;28;20399;-59
2022/09/17 13:03:49;;;;;;;;;;;;;;;;;;5027079;28;20256;-59
2022/09/17 13:06:16;;;;;;;;;;;;;;;;;;5027846;28;19935;-59
2022/09/17 13:08:43;;;;;;;;;;;;;;;;;;5045745;28;20313;-59
2022/09/17 13:11:09;;;;;;;;;;;;;;;;;;5044960;28;19947;-58
2022/09/17 13:13:36;;;;;;;;;;;;;;;;;;5045146;28;20359;-59
2022/09/17 13:16:02;;;;;;;;;;;;;;;;;;5045048;28;20299;-59
2022/09/17 13:18:28;;;;;;;;;;;;;;;;;;5045317;28;19904;-59
2022/09/17 13:20:54;;;;;;;;;;;;;;;;;;5044930;28;19912;-59
2022/09/17 13:23:21;;;;;;;;;;;;;;;;;;5045199;28;19924;-59
2022/09/17 13:25:48;;;;;;;;;;;;;;;;;;5045132;28;20322;-59
2022/09/17 13:28:13;;;;;;;;;;;;;;;;;;5045720;28;19913;-59
2022/09/17 13:30:40;;;;;;;;;;;;;;;;;;5045239;28;20324;-59
2022/09/17 13:33:09;;;;;;;;;;;;;;;;;;5044481;28;19909;-58
2022/09/17 13:35:35;;;;;;;;;;;;;;;;;;5045063;28;20573;-58
2022/09/17 13:38:02;;;;;;;;;;;;;;;;;;5044769;28;19989;-58
2022/09/17 13:40:28;;;;;;;;;;;;;;;;;;5045125;28;19912;-59
2022/09/17 13:42:56;;;;;;;;;;;;;;;;;;5044558;28;19908;-59
2022/09/17 13:45:22;;;;;;;;;;;;;;;;;;5044931;28;19951;-58
2022/09/17 13:47:48;;;;;;;;;;;;;;;;;;5044670;28;19909;-59
2022/09/17 13:50:14;;;;;;;;;;;;;;;;;;5045589;28;19909;-58
2022/09/17 13:52:40;;;;;;;;;;;;;;;;;;5045343;28;19909;-58
2022/09/17 13:55:07;;;;;;;;;;;;;;;;;;5044615;28;19905;-59
2022/09/17 13:57:33;;;;;;;;;;;;;;;;;;5044534;28;19908;-58
2022/09/17 14:00:00;;;;;;;;;;;;;;;;;;5044606;28;19917;-59
2022/09/17 14:02:26;;;;;;;;;;;;;;;;;;5044933;28;19928;-59
2022/09/17 14:04:53;;;;;;;;;;;;;;;;;;5044647;28;19904;-61
2022/09/17 14:07:19;;;;;;;;;;;;;;;;;;5044517;28;20462;-59
2022/09/17 14:09:45;;;;;;;;;;;;;;;;;;5044551;28;19959;-59
2022/09/17 14:12:12;;;;;;;;;;;;;;;;;;5045149;28;19923;-59
2022/09/17 14:14:38;;;;;;;;;;;;;;;;;;5044721;28;20007;-59
2022/09/17 14:17:04;;;;;;;;;;;;;;;;;;5044359;28;19916;-59
2022/09/17 14:19:31;;;;;;;;;;;;;;;;;;5044641;28;19913;-59
2022/09/17 14:22:00;;;;;;;;;;;;;;;;;;5044441;28;19997;-59
2022/09/17 14:24:26;;;;;;;;;;;;;;;;;;5044936;28;19982;-60
2022/09/17 14:26:53;;;;;;;;;;;;;;;;;;5044208;28;19960;-59
2022/09/17 14:29:20;;;;;;;;;;;;;;;;;;5044729;28;19909;-59
2022/09/17 14:31:46;;;;;;;;;;;;;;;;;;5044384;28;19911;-59
2022/09/17 14:34:12;;;;;;;;;;;;;;;;;;5045270;28;20370;-60
2022/09/17 14:36:37;;;;;;;;;;;;;;;;;;5044370;28;19905;-58
2022/09/17 14:39:03;;;;;;;;;;;;;;;;;;5043940;28;19912;-59
2022/09/17 14:41:30;;;;;;;;;;;;;;;;;;5044135;28;19956;-59
2022/09/17 14:43:56;;;;;;;;;;;;;;;;;;5044234;28;19905;-59
2022/09/17 14:46:22;;;;;;;;;;;;;;;;;;5047628;28;19909;-59
2022/09/17 14:48:48;;;;;;;;;;;;;;;;;;5047655;28;20372;-59
2022/09/17 14:51:15;;;;;;;;;;;;;;;;;;5048902;28;20387;-59
2022/09/17 14:53:41;;;;;;;;;;;;;;;;;;5048095;28;20396;-59
2022/09/17 14:56:08;;;;;;;;;;;;;;;;;;5047855;28;19931;-59
2022/09/17 14:58:34;;;;;;;;;;;;;;;;;;5047898;28;19951;-59
2022/09/17 15:01:00;;;;;;;;;;;;;;;;;;5029853;28;19996;-59
2022/09/17 15:03:27;;;;;;;;;;;;;;;;;;5047548;28;20003;-59
2022/09/17 15:05:53;;;;;;;;;;;;;;;;;;5047463;28;19957;-59
2022/09/17 15:08:22;;;;;;;;;;;;;;;;;;5047671;28;19912;-59
2022/09/17 15:10:49;;;;;;;;;;;;;;;;;;5047403;28;19911;-59
2022/09/17 15:13:15;;;;;;;;;;;;;;;;;;5047431;28;19913;-58
2022/09/17 15:15:41;;;;;;;;;;;;;;;;;;5048083;28;19958;-59
2022/09/17 15:18:08;;;;;;;;;;;;;;;;;;5047014;28;19905;-60
2022/09/17 15:20:34;;;;;;;;;;;;;;;;;;5047324;28;19970;-59
2022/09/17 15:23:01;;;;;;;;;;;;;;;;;;5046915;28;19956;-59
2022/09/17 15:25:26;;;;;;;;;;;;;;;;;;5047265;28;19911;-59
2022/09/17 15:27:53;;;;;;;;;;;;;;;;;;5046562;28;19905;-59
2022/09/17 15:30:19;;;;;;;;;;;;;;;;;;5047260;28;19944;-59
2022/09/17 15:32:46;;;;;;;;;;;;;;;;;;5046861;28;19955;-59
2022/09/17 15:35:14;;;;;;;;;;;;;;;;;;5047774;28;20004;-59
2022/09/17 15:37:40;;;;;;;;;;;;;;;;;;5047023;28;20407;-61
2022/09/17 15:40:05;;;;;;;;;;;;;;;;;;5046837;28;19980;-59
2022/09/17 15:42:31;;;;;;;;;;;;;;;;;;5046937;28;19950;-59
2022/09/17 15:44:58;;;;;;;;;;;;;;;;;;5047048;28;20374;-59
2022/09/17 15:47:24;;;;;;;;;;;;;;;;;;5046797;28;20382;-59
2022/09/17 15:49:50;;;;;;;;;;;;;;;;;;5046638;28;19909;-59
2022/09/17 15:52:16;;;;;;;;;;;;;;;;;;5046709;28;19955;-59
2022/09/17 15:54:42;;;;;;;;;;;;;;;;;;5047099;28;20449;-59
2022/09/17 15:57:09;;;;;;;;;;;;;;;;;;5046063;28;19908;-58
2022/09/17 15:59:35;;;;;;;;;;;;;;;;;;5046357;28;19913;-59
2022/09/17 16:02:01;;;;;;;;;;;;;;;;;;5046327;28;19913;-59
2022/09/17 16:04:27;;;;;;;;;;;;;;;;;;5047357;28;19909;-59
2022/09/17 16:06:53;;;;;;;;;;;;;;;;;;5047641;28;20287;-58
2022/09/17 16:09:19;;;;;;;;;;;;;;;;;;5047229;28;19917;-59
2022/09/17 16:11:45;;;;;;;;;;;;;;;;;;5047649;28;20000;-59
2022/09/17 16:14:11;;;;;;;;;;;;;;;;;;5047807;28;19915;-59
2022/09/17 16:16:37;;;;;;;;;;;;;;;;;;5047802;28;19905;-59
2022/09/17 16:19:03;;;;;;;;;;;;;;;;;;5047191;28;19919;-59
2022/09/17 16:21:30;;;;;;;;;;;;;;;;;;5047429;28;19927;-59
2022/09/17 16:23:57;;;;;;;;;;;;;;;;;;5043332;28;19958;-59
2022/09/17 16:26:22;;;;;;;;;;;;;;;;;;5046487;28;19909;-59
2022/09/17 16:28:48;;;;;;;;;;;;;;;;;;5045587;28;19904;-60
2022/09/17 16:31:14;;;;;;;;;;;;;;;;;;5047060;28;20384;-60
2022/09/17 16:33:41;;;;;;;;;;;;;;;;;;5045305;28;19912;-59
2022/09/17 16:36:07;;;;;;;;;;;;;;;;;;5044476;28;19912;-60
2022/09/17 16:38:33;;;;;;;;;;;;;;;;;;5045683;28;20354;-59